Maldives Meteorological Service

SYNOP

Station Code SYNOP
43555
AAXX 13094 43555 42465 70512 10290 20247 30094 40096 84962 333 58008 84817 81918 86076=
43533
AAXX 13094 43533 42465 43405 10300 20250 30096 40098 82202 333 58008 82818 83076=
43577
AAXX 13094 43577 41459 79901 10264 20242 30102 40104 78082 8392/ 333 58015 82817 81918 87461=
43588
AAXX 13094 43588 41456 80905 10248 20236 30105 40106 78086 8492/ 333 58017 83816 81917 88460=
43599
AAXX 13094 43599 41458 82905 10244 20240 30106 40108 76186 8322/ 333 58022 82816 88459=
Last Updated : 2019-12-13 14:00:46